METAR / TAF
Helsinki-Vantaa
HELSINKI/VANTAA
Metar
EFHK 200550Z 20003KT 130V260 CAVOK 20/14 Q1013 NOSIG

05:50 UTC

Wind: 200° 3kt

Visibility:

Sky:

Temp: 20 deg C / 68 deg F

Dewpoint: 14 deg C / 57.2 deg F

Pressure: 1013 hPa

TAF
TAF EFHK 200524Z 2006/2106 18004KT CAVOK BECMG 2012/2014 11010KT PROB30 TEMPO 2015/2022 FEW060CB BECMG 2023/2101 VRB02KT
Helsinki, Malmi
HELSINKI/MALMI
Turku
TURKU/ABO
Metar
EFTU 200550Z AUTO 19007KT CAVOK 21/12 Q1012

05:50 UTC

Wind: 190° 7kt

Visibility:

Sky:

Temp: 21 deg C / 69.8 deg F

Dewpoint: 12 deg C / 53.6 deg F

Pressure: 1012 hPa

TAF
TAF EFTU 200524Z 2006/2106 19006KT CAVOK PROB30 TEMPO 2009/2012 SCT050CB
Tampere, Pirkkala
TAMPERE/PIRKKALA
Metar
EFTP 200550Z 13004KT CAVOK 17/14 Q1012

05:50 UTC

Wind: 130° 4kt

Visibility:

Sky:

Temp: 17 deg C / 62.6 deg F

Dewpoint: 14 deg C / 57.2 deg F

Pressure: 1012 hPa

TAF
TAF EFTP 200527Z 2006/2106 16005KT CAVOK TEMPO 2009/2017 FEW050CB
Maarianhamina
MARIEHAMN/ALAND
Metar
EFMA 200550Z AUTO 14007KT 120V180 CAVOK 20/12 Q1010

05:50 UTC

Wind: 140° 7kt

Visibility:

Sky:

Temp: 20 deg C / 68 deg F

Dewpoint: 12 deg C / 53.6 deg F

Pressure: 1010 hPa

TAF
TAF EFMA 200524Z 2006/2015 16009KT CAVOK PROB30 TEMPO 2009/2012 FEW050TCU
Pori
PORI (MIL/CIV)
Metar
EFPO 200550Z AUTO 14005KT CAVOK 17/14 Q1011

05:50 UTC

Wind: 140° 5kt

Visibility:

Sky:

Temp: 17 deg C / 62.6 deg F

Dewpoint: 14 deg C / 57.2 deg F

Pressure: 1011 hPa

TAF
TAF EFPO 200527Z 2006/2014 13007KT CAVOK TEMPO 2006/2014 FEW050CB BECMG 2008/2010 20010KT
Vaasa
VAASA
Metar
EFVA 200550Z AUTO 10005KT CAVOK 16/11 Q1011

05:50 UTC

Wind: 100° 5kt

Visibility:

Sky:

Temp: 16 deg C / 60.8 deg F

Dewpoint: 11 deg C / 51.8 deg F

Pressure: 1011 hPa

TAF
TAF EFVA 200527Z 2006/2106 09005KT CAVOK TEMPO 2006/2022 SCT050CB BECMG 2008/2010 15010KT PROB40 TEMPO 2008/2018 5000 TSRA PROB30 TEMPO 2023/2102 5000 TSRA
Kruunupyy
KRUUNUPYY
Metar
EFKK 200550Z AUTO 13004KT 090V170 CAVOK 17/10 Q1012

05:50 UTC

Wind: 130° 4kt

Visibility:

Sky:

Temp: 17 deg C / 62.6 deg F

Dewpoint: 10 deg C / 50 deg F

Pressure: 1012 hPa

TAF
TAF EFKK 200527Z 2006/2015 14005KT CAVOK TEMPO 2008/2015 SCT050CB
Jyväskylä, Tikkakoski
JYVASKYLA (MIL/C
Metar
EFJY 200550Z AUTO 14003KT 090V230 CAVOK 18/11 Q1013

05:50 UTC

Wind: 140° 3kt

Visibility:

Sky:

Temp: 18 deg C / 64.4 deg F

Dewpoint: 11 deg C / 51.8 deg F

Pressure: 1013 hPa

TAF
TAF EFJY 200527Z 2006/2106 16004KT CAVOK TEMPO 2006/2018 SCT050CB PROB30 TEMPO 2007/2016 5000 -TSRA
Kuopio
KUOPIO (MIL/CIV)
Metar
EFKU 200550Z AUTO VRB02KT CAVOK 18/11 Q1013

05:50 UTC

Wind: ° 2kt

Visibility:

Sky:

Temp: 18 deg C / 64.4 deg F

Dewpoint: 11 deg C / 51.8 deg F

Pressure: 1013 hPa

TAF
TAF EFKU 200527Z 2006/2106 32005KT CAVOK TEMPO 2019/2022 FEW040CB
Joensuu
JOENSUU
Metar
EFJO 200550Z 07003KT CAVOK 20/12 Q1012

05:50 UTC

Wind: 70° 3kt

Visibility:

Sky:

Temp: 20 deg C / 68 deg F

Dewpoint: 12 deg C / 53.6 deg F

Pressure: 1012 hPa

TAF
TAF EFJO 200527Z 2006/2015 30005KT CAVOK
Halli
HALLI (FIN-AFB)
Metar
EFHA 200550Z 09004KT 060V120 CAVOK 17/14 Q1012

05:50 UTC

Wind: 90° 4kt

Visibility:

Sky:

Temp: 17 deg C / 62.6 deg F

Dewpoint: 14 deg C / 57.2 deg F

Pressure: 1012 hPa

TAF
TAF EFHA 200527Z 2006/2014 10004KT CAVOK TEMPO 2010/2014 FEW050CB
Utti
UTTI (FIN-AFB)
Metar
EFUT 200550Z 19007KT 150V230 CAVOK 20/13 Q1013

05:50 UTC

Wind: 190° 7kt

Visibility:

Sky:

Temp: 20 deg C / 68 deg F

Dewpoint: 13 deg C / 55.4 deg F

Pressure: 1013 hPa

TAF
TAF EFUT 200527Z 2006/2013 21005KT CAVOK
Mikkeli
MIKKELI
Metar
EFMI 200550Z AUTO 00000KT CAVOK ///// Q////
Savonlinna
SAVONLINNA (AUT)
Metar
EFSA 200550Z 21003KT CAVOK 19/15 Q1013

05:50 UTC

Wind: 210° 3kt

Visibility:

Sky:

Temp: 19 deg C / 66.2 deg F

Dewpoint: 15 deg C / 59 deg F

Pressure: 1013 hPa

TAF
TAF EFSA 200527Z 2006/2015 25005KT CAVOK TEMPO 2006/2015 FEW020CB PROB30 2009/2015 7000 TSRA
Lappeenranta
LAPPEENRANTA
Metar
EFLP 200550Z AUTO 21004KT 160V260 CAVOK 20/13 Q1013

05:50 UTC

Wind: 210° 4kt

Visibility:

Sky:

Temp: 20 deg C / 68 deg F

Dewpoint: 13 deg C / 55.4 deg F

Pressure: 1013 hPa

Oulu
OULU/ULEABORG
Metar
EFOU 200550Z AUTO 17003KT 120V220 CAVOK 17/10 Q1013

05:50 UTC

Wind: 170° 3kt

Visibility:

Sky:

Temp: 17 deg C / 62.6 deg F

Dewpoint: 10 deg C / 50 deg F

Pressure: 1013 hPa

TAF
TAF EFOU 200537Z 2006/2106 27004KT CAVOK BECMG 2017/2019 09010KT TEMPO 2021/2100 6000 SHRA FEW040CB
Kemi
KEMI
Metar
EFKE 200550Z AUTO 13004KT 080V190 CAVOK 17/13 Q1012

05:50 UTC

Wind: 130° 4kt

Visibility:

Sky:

Temp: 17 deg C / 62.6 deg F

Dewpoint: 13 deg C / 55.4 deg F

Pressure: 1012 hPa

TAF
TAF EFKE 200537Z 2006/2015 18004KT CAVOK
Rovaniemi
ROVANIEMI (CIV/M
Metar
EFRO 200555Z 16005KT 9999 FEW029 BKN092 15/08 Q1012

05:55 UTC

Wind: 160° 5kt

Visibility: 9999 m

Sky: FEW 2900 ft

Temp: 15 deg C / 59 deg F

Dewpoint: 8 deg C / 46.4 deg F

Pressure: 1012 hPa

TAF
TAF EFRO 200537Z 2006/2106 06003KT CAVOK TEMPO 2010/2014 FEW050CB BECMG 2017/2019 09007KT OVC030 TEMPO 2021/2103 7000 RA BKN009 BECMG 2105/2106 BKN009
Enontekiö
ENONTEKIO
Metar
EFET 200550Z AUTO 21005KT 170V240 CAVOK 11/07 Q1012

05:50 UTC

Wind: 210° 5kt

Visibility:

Sky:

Temp: 11 deg C / 51.8 deg F

Dewpoint: 7 deg C / 44.6 deg F

Pressure: 1012 hPa

Ivalo
IVALO
Metar
EFIV 200550Z AUTO 30006KT 9999 BKN045 OVC093 10/04 Q1013

05:50 UTC

Wind: 300° 6kt

Visibility: 9999 m

Sky: BKN 4500 ft

Temp: 10 deg C / 50 deg F

Dewpoint: 4 deg C / 39.2 deg F

Pressure: 1013 hPa

TAF
TAF EFIV 200537Z 2006/2013 30005KT CAVOK
Kittilä
KITTILA
Metar
EFKT 200550Z AUTO VRB02KT CAVOK 13/08 Q1012

05:50 UTC

Wind: ° 2kt

Visibility:

Sky:

Temp: 13 deg C / 55.4 deg F

Dewpoint: 8 deg C / 46.4 deg F

Pressure: 1012 hPa

TAF
TAF EFKT 200537Z 2006/2012 09002KT 9999 FEW040
Kuusamo
KUUSAMO
Metar
EFKS 200550Z AUTO 17003KT 110V270 9999 BKN042 14/06 Q1013

05:50 UTC

Wind: 170° 3kt

Visibility: 9999 m

Sky: BKN 4200 ft

Temp: 14 deg C / 57.2 deg F

Dewpoint: 6 deg C / 42.8 deg F

Pressure: 1013 hPa

TAF
TAF EFKS 200537Z 2006/2013 18002KT 9999 SCT040 TEMPO 2010/2013 7000 -SHRA FEW040CB
Kajaani
KAJAANI
Metar
EFKI 200550Z AUTO 36003KT 310V040 CAVOK 16/09 Q1013

05:50 UTC

Wind: 360° 3kt

Visibility:

Sky:

Temp: 16 deg C / 60.8 deg F

Dewpoint: 9 deg C / 48.2 deg F

Pressure: 1013 hPa

TAF
TAF EFKI 200527Z 2006/2015 28004KT CAVOK
Varkaus
VARKAUS
Seinäjoki
SEINAJOKI-ILMAJO
Metar
EFSI 200550Z AUTO 12005KT CAVOK 16/11 Q1012

05:50 UTC

Wind: 120° 5kt

Visibility:

Sky:

Temp: 16 deg C / 60.8 deg F

Dewpoint: 11 deg C / 51.8 deg F

Pressure: 1012 hPa

Print Friendly, PDF & Email